Time,TemperatureF,DewpointF,PressureIn,WindDirection,WindDirectionDegrees,WindSpeedMPH,WindSpeedGustMPH,Humidity,HourlyPrecipIn,Conditions,Clouds,dailyrainin,SoftwareType,DateUTC
2013-07-20 00:01:00,76.6,57.7,29.85,NNW,340,4.0,9.0,52,0.00,CLR,CLR,0.00,WeatherDisplay:10.34,2013-07-20 04:01:00,
2013-07-20 00:02:00,76.5,58.1,29.85,WSW,249,0.0,8.0,53,0.00,FEW,FEW,0.00,WeatherDisplay:10.34,2013-07-20 04:02:00,
2013-07-20 00:04:00,76.5,58.1,29.85,NE,38,4.0,5.0,53,0.00,FEW,FEW,0.00,WeatherDisplay:10.34,2013-07-20 04:04:00,
2013-07-20 00:05:00,76.5,58.1,29.85,SSW,199,4.0,6.0,53,0.00,FEW,FEW,0.00,WeatherDisplay:10.34,2013-07-20 04:05:00,
2013-07-20 00:06:00,76.5,58.1,29.85,SSW,199,4.0,6.0,53,0.00,FEW,FEW,0.00,WeatherDisplay:10.34,2013-07-20 04:06:00,
2013-07-20 00:11:00,76.1,58.2,29.85,WSW,247,0.0,3.0,54,0.00,FEW,FEW,0.00,WeatherDisplay:10.34,2013-07-20 04:11:00,
2013-07-20 00:16:00,76.1,58.8,29.85,WSW,250,4.0,4.0,55,0.00,FEW,FEW,0.00,WeatherDisplay:10.34,2013-07-20 04:16:00,
2013-07-20 00:21:00,75.9,60.1,29.85,West,277,0.0,3.0,58,0.00,FEW,FEW,0.00,WeatherDisplay:10.34,2013-07-20 04:21:00,
2013-07-20 00:27:00,75.0,62.0,29.85,West,280,0.0,5.0,64,0.00,FEW,FEW,0.00,WeatherDisplay:10.34,2013-07-20 04:27:00,
2013-07-20 00:32:00,74.3,63.5,29.85,NNE,29,5.0,9.0,69,0.00,FEW,FEW,0.00,WeatherDisplay:10.34,2013-07-20 04:32:00,
2013-07-20 00:38:00,73.6,63.6,29.85,SW,232,0.0,3.0,71,0.00,FEW,FEW,0.00,WeatherDisplay:10.34,2013-07-20 04:38:00,
2013-07-20 00:43:00,73.6,64.0,29.85,South,177,0.0,3.0,72,0.00,FEW,FEW,0.00,WeatherDisplay:10.34,2013-07-20 04:43:00,
2013-07-20 00:48:00,73.4,64.6,29.83,SSW,192,0.0,2.0,74,0.00,FEW,FEW,0.00,WeatherDisplay:10.34,2013-07-20 04:48:00,
2013-07-20 00:53:00,73.0,65.0,29.83,WSW,250,3.0,6.0,76,0.00,FEW,FEW,0.00,WeatherDisplay:10.34,2013-07-20 04:53:00,
2013-07-20 00:58:00,72.9,65.6,29.83,West,270,0.0,3.0,78,0.00,FEW,FEW,0.00,WeatherDisplay:10.34,2013-07-20 04:58:00,
2013-07-20 01:03:00,72.7,65.8,29.76,West,270,3.0,3.0,79,0.00,FEW,FEW,0.00,WeatherDisplay:10.34,2013-07-20 05:03:00,
2013-07-20 01:08:00,72.7,65.8,29.76,NW,304,3.0,5.0,79,0.00,FEW,FEW,0.00,WeatherDisplay:10.34,2013-07-20 05:08:00,
2013-07-20 01:13:00,72.7,66.2,29.76,West,275,0.0,3.0,80,0.00,FEW,FEW,0.00,WeatherDisplay:10.34,2013-07-20 05:13:00,
2013-07-20 01:18:00,72.5,66.0,29.79,South,170,4.0,7.0,80,0.00,FEW,FEW,0.00,WeatherDisplay:10.34,2013-07-20 05:18:00,
2013-07-20 01:23:00,72.5,66.3,29.79,NNE,15,4.0,8.0,81,0.00,FEW,FEW,0.00,WeatherDisplay:10.34,2013-07-20 05:23:00,
2013-07-20 01:28:00,72.3,66.2,29.79,SW,231,6.0,13.0,81,0.00,FEW,FEW,0.00,WeatherDisplay:10.34,2013-07-20 05:28:00,
2013-07-20 01:33:00,72.3,66.2,29.79,West,279,4.0,9.0,81,0.00,FEW,FEW,0.00,WeatherDisplay:10.34,2013-07-20 05:33:00,
2013-07-20 01:38:00,72.1,66.0,29.79,WSW,248,4.0,8.0,81,0.00,FEW,FEW,0.00,WeatherDisplay:10.34,2013-07-20 05:38:00,
2013-07-20 01:43:00,72.1,66.0,29.79,SSE,160,3.0,6.0,81,0.00,FEW,FEW,0.00,WeatherDisplay:10.34,2013-07-20 05:43:00,
2013-07-20 01:48:00,72.1,66.0,29.79,NE,49,3.0,5.0,81,0.00,FEW,FEW,0.00,WeatherDisplay:10.34,2013-07-20 05:48:00,
2013-07-20 01:53:00,72.0,65.5,29.79,WNW,290,8.0,14.0,80,0.00,FEW,FEW,0.00,WeatherDisplay:10.34,2013-07-20 05:53:00,
2013-07-20 01:58:00,71.8,64.9,29.79,NNE,23,4.0,6.0,79,0.00,FEW,FEW,0.00,WeatherDisplay:10.34,2013-07-20 05:58:00,
2013-07-20 02:03:00,71.8,64.5,29.79,NNW,346,4.0,8.0,78,0.00,CLR,CLR,0.00,WeatherDisplay:10.34,2013-07-20 06:03:00,
2013-07-20 02:08:00,71.6,64.4,29.79,West,263,5.0,10.0,78,0.00,CLR,CLR,0.00,WeatherDisplay:10.34,2013-07-20 06:08:00,
2013-07-20 02:13:00,71.4,64.2,29.79,NNE,20,3.0,5.0,78,0.00,CLR,CLR,0.00,WeatherDisplay:10.34,2013-07-20 06:13:00,
2013-07-20 02:18:00,71.4,64.2,29.82,SW,236,6.0,9.0,78,0.00,CLR,CLR,0.00,WeatherDisplay:10.34,2013-07-20 06:18:00,
2013-07-20 02:23:00,71.1,63.9,29.82,ESE,118,6.0,8.0,78,0.00,CLR,CLR,0.00,WeatherDisplay:10.34,2013-07-20 06:23:00,
2013-07-20 02:28:00,70.7,63.9,29.82,WNW,302,7.0,12.0,79,0.00,CLR,CLR,0.00,WeatherDisplay:10.34,2013-07-20 06:28:00,
2013-07-20 02:33:00,70.5,64.0,29.79,SSE,157,4.0,6.0,80,0.00,CLR,CLR,0.00,WeatherDisplay:10.34,2013-07-20 06:33:00,
2013-07-20 02:38:00,70.3,64.2,29.79,WSW,247,5.0,8.0,81,0.00,CLR,CLR,0.00,WeatherDisplay:10.34,2013-07-20 06:38:00,
2013-07-20 02:43:00,70.3,64.2,29.79,SW,217,5.0,9.0,81,0.00,CLR,CLR,0.00,WeatherDisplay:10.34,2013-07-20 06:43:00,
2013-07-20 02:48:00,70.2,64.1,29.79,SSW,197,6.0,10.0,81,0.00,CLR,CLR,0.00,WeatherDisplay:10.34,2013-07-20 06:48:00,
2013-07-20 02:53:00,70.2,64.1,29.79,NW,306,3.0,8.0,81,0.00,CLR,CLR,0.00,WeatherDisplay:10.34,2013-07-20 06:53:00,
2013-07-20 02:58:00,70.2,64.1,29.79,WNW,299,4.0,8.0,81,0.00,CLR,CLR,0.00,WeatherDisplay:10.34,2013-07-20 06:58:00,
2013-07-20 03:03:00,70.2,64.1,29.79,East,99,0.0,7.0,81,0.00,CLR,CLR,0.00,WeatherDisplay:10.34,2013-07-20 07:03:00,
2013-07-20 03:08:00,70.2,64.1,29.79,WNW,285,4.0,8.0,81,0.00,CLR,CLR,0.00,WeatherDisplay:10.34,2013-07-20 07:08:00,
2013-07-20 03:13:00,70.2,64.1,29.79,WSW,257,4.0,7.0,81,0.00,CLR,CLR,0.00,WeatherDisplay:10.34,2013-07-20 07:13:00,
2013-07-20 03:18:00,70.2,64.1,29.79,NW,310,4.0,6.0,81,0.00,CLR,CLR,0.00,WeatherDisplay:10.34,2013-07-20 07:18:00,
2013-07-20 03:23:00,70.0,63.9,29.79,SW,231,3.0,7.0,81,0.00,CLR,CLR,0.00,WeatherDisplay:10.34,2013-07-20 07:23:00,
2013-07-20 03:28:00,70.0,64.2,29.79,SE,134,0.0,5.0,82,0.00,CLR,CLR,0.00,WeatherDisplay:10.34,2013-07-20 07:28:00,
2013-07-20 03:33:00,70.0,64.2,29.82,SSW,203,3.0,7.0,82,0.00,CLR,CLR,0.00,WeatherDisplay:10.34,2013-07-20 07:33:00,
2013-07-20 03:38:00,70.0,64.2,29.82,South,182,3.0,5.0,82,0.00,CLR,CLR,0.00,WeatherDisplay:10.34,2013-07-20 07:38:00,
2013-07-20 03:43:00,70.0,64.2,29.82,SW,234,3.0,5.0,82,0.00,CLR,CLR,0.00,WeatherDisplay:10.34,2013-07-20 07:43:00,
2013-07-20 03:48:00,70.0,63.9,29.82,WSW,243,3.0,6.0,81,0.00,CLR,CLR,0.00,WeatherDisplay:10.34,2013-07-20 07:48:00,
2013-07-20 03:53:00,69.8,63.7,29.82,SSW,208,3.0,6.0,81,0.00,CLR,CLR,0.00,WeatherDisplay:10.34,2013-07-20 07:53:00,
2013-07-20 03:58:00,69.6,63.9,29.82,NE,39,4.0,7.0,82,0.00,CLR,CLR,0.00,WeatherDisplay:10.34,2013-07-20 07:58:00,
2013-07-20 03:59:00,69.6,63.9,29.82,West,277,0.0,6.0,82,0.00,CLR,CLR,0.00,WeatherDisplay:10.34,2013-07-20 07:59:00,
2013-07-20 04:04:00,69.6,63.9,29.82,WNW,294,4.0,7.0,82,0.00,CLR,CLR,0.00,WeatherDisplay:10.34,2013-07-20 08:04:00,
2013-07-20 04:09:00,69.6,63.9,29.82,WSW,240,3.0,3.0,82,0.00,CLR,CLR,0.00,WeatherDisplay:10.34,2013-07-20 08:09:00,
2013-07-20 04:14:00,69.4,64.0,29.82,WSW,257,4.0,6.0,83,0.00,CLR,CLR,0.00,WeatherDisplay:10.34,2013-07-20 08:14:00,
2013-07-20 04:19:00,69.3,63.9,29.82,West,268,4.0,8.0,83,0.00,CLR,CLR,0.00,WeatherDisplay:10.34,2013-07-20 08:19:00,
2013-07-20 04:24:00,69.3,63.9,29.82,WSW,257,4.0,6.0,83,0.00,CLR,CLR,0.00,WeatherDisplay:10.34,2013-07-20 08:24:00,
2013-07-20 04:29:00,69.3,63.9,29.82,West,270,3.0,5.0,83,0.00,CLR,CLR,0.00,WeatherDisplay:10.34,2013-07-20 08:29:00,
2013-07-20 04:34:00,69.3,63.9,29.82,West,261,4.0,6.0,83,0.00,CLR,CLR,0.00,WeatherDisplay:10.34,2013-07-20 08:34:00,
2013-07-20 04:39:00,69.3,63.9,29.82,SW,226,3.0,6.0,83,0.00,CLR,CLR,0.00,WeatherDisplay:10.34,2013-07-20 08:39:00,
2013-07-20 04:44:00,69.1,63.7,29.82,SW,227,6.0,9.0,83,0.00,CLR,CLR,0.00,WeatherDisplay:10.34,2013-07-20 08:44:00,
2013-07-20 04:49:00,69.1,63.7,29.82,WSW,248,4.0,8.0,83,0.00,CLR,CLR,0.00,WeatherDisplay:10.34,2013-07-20 08:49:00,
2013-07-20 04:54:00,69.1,63.7,29.82,NW,321,4.0,7.0,83,0.00,CLR,CLR,0.00,WeatherDisplay:10.34,2013-07-20 08:54:00,
2013-07-20 04:59:00,69.3,63.5,29.82,WNW,286,5.0,8.0,82,0.00,CLR,CLR,0.00,WeatherDisplay:10.34,2013-07-20 08:59:00,
2013-07-20 05:04:00,69.3,63.5,29.82,SSW,208,0.0,5.0,82,0.00,CLR,CLR,0.00,WeatherDisplay:10.34,2013-07-20 09:04:00,
2013-07-20 05:09:00,69.4,63.7,29.82,WSW,249,4.0,5.0,82,0.00,CLR,CLR,0.00,WeatherDisplay:10.34,2013-07-20 09:09:00,
2013-07-20 05:14:00,69.4,63.4,29.82,South,185,0.0,5.0,81,0.00,CLR,CLR,0.00,WeatherDisplay:10.34,2013-07-20 09:14:00,
2013-07-20 05:19:00,69.4,63.4,29.82,SSE,167,4.0,9.0,81,0.00,CLR,CLR,0.00,WeatherDisplay:10.34,2013-07-20 09:19:00,
2013-07-20 05:24:00,69.4,63.4,29.82,SW,228,4.0,5.0,81,0.00,CLR,CLR,0.00,WeatherDisplay:10.34,2013-07-20 09:24:00,
2013-07-20 05:29:00,69.4,63.4,29.82,West,270,4.0,7.0,81,0.00,CLR,CLR,0.00,WeatherDisplay:10.34,2013-07-20 09:29:00,
2013-07-20 05:34:00,69.4,63.4,29.82,WSW,251,0.0,3.0,81,0.00,CLR,CLR,0.00,WeatherDisplay:10.34,2013-07-20 09:34:00,
2013-07-20 05:39:00,69.4,63.0,29.82,WSW,258,3.0,5.0,80,0.00,CLR,CLR,0.00,WeatherDisplay:10.34,2013-07-20 09:39:00,
2013-07-20 05:44:00,69.4,63.0,29.82,WNW,291,4.0,7.0,80,0.00,CLR,CLR,0.00,WeatherDisplay:10.34,2013-07-20 09:44:00,
2013-07-20 05:49:00,69.4,62.6,29.82,ENE,57,3.0,3.0,79,0.00,CLR,CLR,0.00,WeatherDisplay:10.34,2013-07-20 09:49:00,
2013-07-20 05:54:00,69.4,62.6,29.82,SW,225,3.0,6.0,79,0.00,CLR,CLR,0.00,WeatherDisplay:10.34,2013-07-20 09:54:00,
2013-07-20 05:59:00,69.6,62.5,29.82,NE,39,4.0,7.0,78,0.00,CLR,CLR,0.00,WeatherDisplay:10.34,2013-07-20 09:59:00,
2013-07-20 06:04:00,69.4,61.9,29.82,West,275,4.0,6.0,77,0.00,CLR,CLR,0.00,WeatherDisplay:10.34,2013-07-20 10:04:00,
2013-07-20 06:09:00,69.4,61.5,29.82,WSW,241,0.0,6.0,76,0.00,CLR,CLR,0.00,WeatherDisplay:10.34,2013-07-20 10:09:00,
2013-07-20 06:14:00,69.4,61.5,29.82,WSW,238,4.0,7.0,76,0.00,CLR,CLR,0.00,WeatherDisplay:10.34,2013-07-20 10:14:00,
2013-07-20 06:19:00,69.4,61.2,29.82,WSW,242,3.0,5.0,75,0.00,CLR,CLR,0.00,WeatherDisplay:10.34,2013-07-20 10:19:00,
2013-07-20 06:24:00,69.6,61.3,29.82,NW,311,3.0,5.0,75,0.00,CLR,CLR,0.00,WeatherDisplay:10.34,2013-07-20 10:24:00,
2013-07-20 06:29:00,69.6,61.0,29.82,NE,37,0.0,5.0,74,0.00,CLR,CLR,0.00,WeatherDisplay:10.34,2013-07-20 10:29:00,
2013-07-20 06:34:00,69.8,60.8,29.82,SW,218,4.0,8.0,73,0.00,CLR,CLR,0.00,WeatherDisplay:10.34,2013-07-20 10:34:00,
2013-07-20 06:39:00,70.0,60.9,29.82,West,268,4.0,7.0,73,0.00,CLR,CLR,0.00,WeatherDisplay:10.34,2013-07-20 10:39:00,
2013-07-20 06:44:00,70.0,60.9,29.82,SE,137,4.0,7.0,73,0.00,CLR,CLR,0.00,WeatherDisplay:10.34,2013-07-20 10:44:00,
2013-07-20 06:49:00,70.2,61.1,29.82,WSW,252,4.0,8.0,73,0.00,CLR,CLR,0.00,WeatherDisplay:10.34,2013-07-20 10:49:00,
2013-07-20 06:54:00,70.3,61.3,29.82,NNE,23,5.0,7.0,73,0.00,CLR,CLR,0.00,WeatherDisplay:10.34,2013-07-20 10:54:00,
2013-07-20 06:59:00,70.3,60.9,29.83,West,279,3.0,6.0,72,0.00,CLR,CLR,0.00,WeatherDisplay:10.34,2013-07-20 10:59:00,
2013-07-20 07:04:00,70.5,61.1,29.83,WSW,252,4.0,6.0,72,0.00,CLR,CLR,0.00,WeatherDisplay:10.34,2013-07-20 11:04:00,
2013-07-20 07:09:00,70.5,61.1,29.83,SW,231,3.0,3.0,72,0.00,CLR,CLR,0.00,WeatherDisplay:10.34,2013-07-20 11:09:00,
2013-07-20 07:14:00,70.5,61.1,29.83,SE,136,3.0,5.0,72,0.00,CLR,CLR,0.00,WeatherDisplay:10.34,2013-07-20 11:14:00,
2013-07-20 07:19:00,70.5,61.4,29.83,SW,231,3.0,6.0,73,0.00,CLR,CLR,0.00,WeatherDisplay:10.34,2013-07-20 11:19:00,
2013-07-20 07:24:00,70.7,61.6,29.83,SW,229,3.0,7.0,73,0.00,CLR,CLR,0.00,WeatherDisplay:10.34,2013-07-20 11:24:00,
2013-07-20 07:29:00,71.1,62.0,29.83,SSE,166,3.0,6.0,73,0.00,CLR,CLR,0.00,WeatherDisplay:10.34,2013-07-20 11:29:00,
2013-07-20 07:34:00,71.1,61.6,29.86,NW,304,3.0,5.0,72,0.00,CLR,CLR,0.00,WeatherDisplay:10.34,2013-07-20 11:34:00,
2013-07-20 07:39:00,71.4,61.5,29.86,WSW,240,3.0,6.0,71,0.00,CLR,CLR,0.00,WeatherDisplay:10.34,2013-07-20 11:39:00,
2013-07-20 07:45:00,71.4,61.5,29.86,WNW,299,3.0,7.0,71,0.00,CLR,CLR,0.00,WeatherDisplay:10.34,2013-07-20 11:45:00,
2013-07-20 07:50:00,71.8,61.9,29.86,South,174,3.0,7.0,71,0.00,CLR,CLR,0.00,WeatherDisplay:10.34,2013-07-20 11:50:00,
2013-07-20 07:55:00,72.1,61.4,29.85,SW,225,5.0,13.0,69,0.00,CLR,CLR,0.00,WeatherDisplay:10.34,2013-07-20 11:55:00,
2013-07-20 08:00:00,72.3,61.2,29.85,WNW,282,5.0,9.0,68,0.00,CLR,CLR,0.00,WeatherDisplay:10.34,2013-07-20 12:00:00,
2013-07-20 08:05:00,72.1,60.6,29.86,WSW,251,4.0,6.0,67,0.00,CLR,CLR,0.00,WeatherDisplay:10.34,2013-07-20 12:05:00,
2013-07-20 08:10:00,72.3,60.7,29.86,West,264,4.0,9.0,67,0.00,CLR,CLR,0.00,WeatherDisplay:10.34,2013-07-20 12:10:00,
2013-07-20 08:15:00,72.5,60.5,29.86,NW,309,4.0,10.0,66,0.00,CLR,CLR,0.00,WeatherDisplay:10.34,2013-07-20 12:15:00,
2013-07-20 08:20:00,72.5,60.1,29.86,SSW,213,7.0,13.0,65,0.00,CLR,CLR,0.00,WeatherDisplay:10.34,2013-07-20 12:20:00,
2013-07-20 08:25:00,72.3,59.9,29.86,WNW,283,3.0,5.0,65,0.00,CLR,CLR,0.00,WeatherDisplay:10.34,2013-07-20 12:25:00,
2013-07-20 08:30:00,72.3,59.9,29.86,NE,48,0.0,6.0,65,0.00,CLR,CLR,0.00,WeatherDisplay:10.34,2013-07-20 12:30:00,
2013-07-20 08:35:00,72.1,60.2,29.83,NNE,25,3.0,6.0,66,0.00,CLR,CLR,0.00,WeatherDisplay:10.34,2013-07-20 12:35:00,
2013-07-20 08:40:00,72.3,60.7,29.83,WNW,291,3.0,12.0,67,0.00,CLR,CLR,0.00,WeatherDisplay:10.34,2013-07-20 12:40:00,
2013-07-20 08:45:00,72.5,60.5,29.83,WSW,258,4.0,7.0,66,0.00,CLR,CLR,0.00,WeatherDisplay:10.34,2013-07-20 12:45:00,
2013-07-20 08:50:00,72.9,60.4,29.83,North,351,4.0,10.0,65,0.00,CLR,CLR,0.00,WeatherDisplay:10.34,2013-07-20 12:50:00,
2013-07-20 08:55:00,73.2,60.3,29.83,WSW,253,4.0,15.0,64,0.00,CLR,CLR,0.00,WeatherDisplay:10.34,2013-07-20 12:55:00,
2013-07-20 09:00:00,73.4,59.6,29.83,SE,126,5.0,8.0,62,0.00,CLR,CLR,0.00,WeatherDisplay:10.34,2013-07-20 13:00:00,
2013-07-20 09:05:00,73.6,59.8,29.82,West,261,4.0,8.0,62,0.00,CLR,CLR,0.00,WeatherDisplay:10.34,2013-07-20 13:05:00,
2013-07-20 09:10:00,73.8,59.9,29.82,NE,48,6.0,8.0,62,0.00,CLR,CLR,0.00,WeatherDisplay:10.34,2013-07-20 13:10:00,
2013-07-20 09:15:00,73.8,59.5,29.82,South,174,6.0,7.0,61,0.00,CLR,CLR,0.00,WeatherDisplay:10.34,2013-07-20 13:15:00,
2013-07-20 09:20:00,73.8,59.9,29.82,WNW,284,4.0,6.0,62,0.00,CLR,CLR,0.00,WeatherDisplay:10.34,2013-07-20 13:20:00,
2013-07-20 09:25:00,74.1,60.7,29.82,SSW,202,5.0,6.0,63,0.00,CLR,CLR,0.00,WeatherDisplay:10.34,2013-07-20 13:25:00,
2013-07-20 09:30:00,74.7,59.9,29.82,WSW,244,5.0,10.0,60,0.00,CLR,CLR,0.00,WeatherDisplay:10.34,2013-07-20 13:30:00,
2013-07-20 09:35:00,74.8,59.5,29.82,NW,315,5.0,7.0,59,0.00,CLR,CLR,0.00,WeatherDisplay:10.34,2013-07-20 13:35:00,
2013-07-20 09:40:00,74.8,59.1,29.82,South,187,6.0,9.0,58,0.00,CLR,CLR,0.00,WeatherDisplay:10.34,2013-07-20 13:40:00,
2013-07-20 09:45:00,75.0,59.2,29.82,South,170,4.0,6.0,58,0.00,CLR,CLR,0.00,WeatherDisplay:10.34,2013-07-20 13:45:00,
2013-07-20 09:50:00,75.2,59.4,29.82,NNW,337,5.0,9.0,58,0.00,CLR,CLR,0.00,WeatherDisplay:10.34,2013-07-20 13:50:00,
2013-07-20 09:55:00,75.2,59.4,29.82,NNE,17,3.0,7.0,58,0.00,CLR,CLR,0.00,WeatherDisplay:10.34,2013-07-20 13:55:00,
2013-07-20 10:00:00,75.4,59.1,29.82,WNW,300,5.0,7.0,57,0.00,CLR,CLR,0.00,WeatherDisplay:10.34,2013-07-20 14:00:00,
2013-07-20 10:05:00,75.6,59.3,29.82,WSW,238,5.0,8.0,57,0.00,CLR,CLR,0.00,WeatherDisplay:10.34,2013-07-20 14:05:00,
2013-07-20 10:10:00,75.7,59.9,29.82,NE,34,7.0,9.0,58,0.00,CLR,CLR,0.00,WeatherDisplay:10.34,2013-07-20 14:10:00,
2013-07-20 10:15:00,75.9,58.1,29.82,NE,52,4.0,9.0,54,0.00,CLR,CLR,0.00,WeatherDisplay:10.34,2013-07-20 14:15:00,
2013-07-20 10:20:00,75.9,58.1,29.82,West,270,4.0,7.0,54,0.00,CLR,CLR,0.00,WeatherDisplay:10.34,2013-07-20 14:20:00,
2013-07-20 10:25:00,76.1,58.8,29.82,NNW,332,5.0,7.0,55,0.00,CLR,CLR,0.00,WeatherDisplay:10.34,2013-07-20 14:25:00,
2013-07-20 10:30:00,76.6,58.7,29.82,NNE,24,5.0,9.0,54,0.00,CLR,CLR,0.00,WeatherDisplay:10.34,2013-07-20 14:30:00,
2013-07-20 10:35:00,77.0,59.6,29.82,SE,134,5.0,8.0,55,0.00,CLR,CLR,0.00,WeatherDisplay:10.34,2013-07-20 14:35:00,
2013-07-20 10:40:00,77.4,59.9,29.82,South,190,9.0,14.0,55,0.00,CLR,CLR,0.00,WeatherDisplay:10.34,2013-07-20 14:40:00,
2013-07-20 10:45:00,77.7,59.2,29.82,ESE,110,4.0,4.0,53,0.00,CLR,CLR,0.00,WeatherDisplay:10.34,2013-07-20 14:45:00,
2013-07-20 10:50:00,78.1,58.5,29.82,WSW,252,6.0,9.0,51,0.00,CLR,CLR,0.00,WeatherDisplay:10.34,2013-07-20 14:50:00,
2013-07-20 10:55:00,78.3,58.6,29.82,SW,214,5.0,10.0,51,0.00,CLR,CLR,0.00,WeatherDisplay:10.34,2013-07-20 14:55:00,
2013-07-20 11:00:00,78.6,57.9,29.82,NE,47,6.0,9.0,49,0.00,CLR,CLR,0.00,WeatherDisplay:10.34,2013-07-20 15:00:00,
2013-07-20 11:05:00,78.6,56.7,29.82,WSW,243,7.0,10.0,47,0.00,CLR,CLR,0.00,WeatherDisplay:10.34,2013-07-20 15:05:00,
2013-07-20 11:10:00,78.8,56.9,29.82,NNW,345,4.0,7.0,47,0.00,CLR,CLR,0.00,WeatherDisplay:10.34,2013-07-20 15:10:00,
2013-07-20 11:15:00,78.4,54.7,29.82,NNW,346,4.0,7.0,44,0.00,CLR,CLR,0.00,WeatherDisplay:10.34,2013-07-20 15:15:00,
2013-07-20 11:20:00,77.7,55.3,29.83,NE,52,4.0,6.0,46,0.00,CLR,CLR,0.00,WeatherDisplay:10.34,2013-07-20 15:20:00,
2013-07-20 11:25:00,77.2,56.0,29.83,WNW,294,3.0,3.0,48,0.00,CLR,CLR,0.00,WeatherDisplay:10.34,2013-07-20 15:25:00,
2013-07-20 11:30:00,76.8,56.8,29.83,ENE,57,3.0,7.0,50,0.00,CLR,CLR,0.00,WeatherDisplay:10.34,2013-07-20 15:30:00,
2013-07-20 11:35:00,76.8,57.9,29.83,NE,35,3.0,6.0,52,0.00,CLR,CLR,0.00,WeatherDisplay:10.34,2013-07-20 15:35:00,
2013-07-20 11:40:00,77.0,57.5,29.83,SE,124,3.0,5.0,51,0.00,CLR,CLR,0.00,WeatherDisplay:10.34,2013-07-20 15:40:00,
2013-07-20 11:45:00,77.4,57.8,29.83,SW,228,4.0,9.0,51,0.00,CLR,CLR,0.00,WeatherDisplay:10.34,2013-07-20 15:45:00,
2013-07-20 11:50:00,77.7,57.6,29.83,NNE,29,7.0,13.0,50,0.00,CLR,CLR,0.00,WeatherDisplay:10.34,2013-07-20 15:50:00,
2013-07-20 11:55:00,78.3,58.1,29.83,SSW,210,3.0,5.0,50,0.00,CLR,CLR,0.00,WeatherDisplay:10.34,2013-07-20 15:55:00,
2013-07-20 12:00:00,78.8,56.3,29.83,West,281,4.0,8.0,46,0.00,CLR,CLR,0.00,WeatherDisplay:10.34,2013-07-20 16:00:00,
2013-07-20 12:05:00,79.2,56.6,29.83,West,259,4.0,7.0,46,0.00,FEW,FEW,0.00,WeatherDisplay:10.34,2013-07-20 16:05:00,
2013-07-20 12:11:00,79.2,56.6,29.83,NE,34,4.0,9.0,46,0.00,FEW,FEW,0.00,WeatherDisplay:10.34,2013-07-20 16:11:00,
2013-07-20 12:16:00,79.3,55.5,29.79,WSW,241,4.0,8.0,44,0.00,FEW,FEW,0.00,WeatherDisplay:10.34,2013-07-20 16:16:00,
2013-07-20 12:21:00,79.3,56.2,29.80,SW,219,3.0,6.0,45,0.00,FEW,FEW,0.00,WeatherDisplay:10.34,2013-07-20 16:21:00,
2013-07-20 12:26:00,79.2,56.6,29.80,West,262,4.0,6.0,46,0.00,FEW,FEW,0.00,WeatherDisplay:10.34,2013-07-20 16:26:00,
2013-07-20 12:31:00,78.8,56.3,29.80,NNW,341,4.0,4.0,46,0.00,FEW,FEW,0.00,WeatherDisplay:10.34,2013-07-20 16:31:00,
2013-07-20 12:36:00,79.0,57.6,29.80,NE,49,3.0,5.0,48,0.00,FEW,FEW,0.00,WeatherDisplay:10.34,2013-07-20 16:36:00,
2013-07-20 12:41:00,79.2,56.6,29.80,West,267,7.0,9.0,46,0.00,FEW,FEW,0.00,WeatherDisplay:10.34,2013-07-20 16:41:00,
2013-07-20 12:46:00,79.5,56.9,29.80,WNW,299,4.0,9.0,46,0.00,FEW,FEW,0.00,WeatherDisplay:10.34,2013-07-20 16:46:00,
2013-07-20 12:51:00,80.1,55.5,29.80,SSW,210,6.0,8.0,43,0.00,FEW,FEW,0.00,WeatherDisplay:10.34,2013-07-20 16:51:00,
2013-07-20 12:56:00,80.4,55.9,29.80,North,10,9.0,18.0,43,0.00,FEW,FEW,0.00,WeatherDisplay:10.34,2013-07-20 16:56:00,
2013-07-20 13:01:00,80.8,56.2,29.80,West,278,6.0,12.0,43,0.00,FEW,FEW,0.00,WeatherDisplay:10.34,2013-07-20 17:01:00,
2013-07-20 13:06:00,80.8,56.2,29.80,West,268,5.0,7.0,43,0.00,BKN,BKN,0.00,WeatherDisplay:10.34,2013-07-20 17:06:00,
2013-07-20 13:11:00,80.6,56.0,29.80,SE,145,4.0,6.0,43,0.00,BKN,BKN,0.00,WeatherDisplay:10.34,2013-07-20 17:11:00,
2013-07-20 13:16:00,80.4,57.1,29.80,East,88,4.0,7.0,45,0.00,BKN,BKN,0.00,WeatherDisplay:10.34,2013-07-20 17:16:00,
2013-07-20 13:21:00,80.4,57.7,29.80,NNE,23,6.0,9.0,46,0.00,BKN,BKN,0.00,WeatherDisplay:10.34,2013-07-20 17:21:00,
2013-07-20 13:26:00,80.4,58.3,29.80,ENE,70,4.0,7.0,47,0.00,BKN,BKN,0.00,WeatherDisplay:10.34,2013-07-20 17:26:00,
2013-07-20 13:31:00,80.8,58.7,29.80,SW,216,5.0,10.0,47,0.00,BKN,BKN,0.00,WeatherDisplay:10.34,2013-07-20 17:31:00,
2013-07-20 13:36:00,81.3,59.2,29.80,SW,233,4.0,12.0,47,0.00,BKN,BKN,0.00,WeatherDisplay:10.34,2013-07-20 17:36:00,
2013-07-20 13:42:00,81.7,57.6,29.80,SW,229,6.0,9.0,44,0.00,BKN,BKN,0.00,WeatherDisplay:10.34,2013-07-20 17:42:00,
2013-07-20 13:47:00,81.5,56.8,29.80,South,176,4.0,9.0,43,0.00,BKN,BKN,0.00,WeatherDisplay:10.34,2013-07-20 17:47:00,
2013-07-20 13:52:00,81.0,58.2,29.80,WNW,283,3.0,6.0,46,0.00,BKN,BKN,0.00,WeatherDisplay:10.34,2013-07-20 17:52:00,
2013-07-20 13:57:00,80.6,58.5,29.80,WNW,286,5.0,10.0,47,0.00,BKN,BKN,0.00,WeatherDisplay:10.34,2013-07-20 17:57:00,
2013-07-20 14:02:00,79.9,57.8,29.80,NE,47,3.0,6.0,47,0.00,FEW,FEW,0.00,WeatherDisplay:10.34,2013-07-20 18:02:00,
2013-07-20 14:07:00,79.5,59.2,29.80,SW,225,4.0,6.0,50,0.00,FEW,FEW,0.00,WeatherDisplay:10.34,2013-07-20 18:07:00,
2013-07-20 14:12:00,79.9,60.1,29.80,SE,132,3.0,6.0,51,0.00,FEW,FEW,0.00,WeatherDisplay:10.34,2013-07-20 18:12:00,
2013-07-20 14:17:00,80.2,59.3,29.80,SSW,203,5.0,8.0,49,0.00,FEW,FEW,0.00,WeatherDisplay:10.34,2013-07-20 18:17:00,
2013-07-20 14:22:00,80.6,60.8,29.80,East,100,4.0,4.0,51,0.00,FEW,FEW,0.00,WeatherDisplay:10.34,2013-07-20 18:22:00,
2013-07-20 14:27:00,81.1,59.0,29.80,WSW,240,3.0,6.0,47,0.00,FEW,FEW,0.00,WeatherDisplay:10.34,2013-07-20 18:27:00,
2013-07-20 14:32:00,81.3,57.9,29.80,West,273,5.0,9.0,45,0.00,FEW,FEW,0.00,WeatherDisplay:10.34,2013-07-20 18:32:00,
2013-07-20 14:37:00,80.8,56.8,29.80,West,270,6.0,10.0,44,0.00,FEW,FEW,0.00,WeatherDisplay:10.34,2013-07-20 18:37:00,
2013-07-20 14:42:00,81.0,57.0,29.80,WSW,243,7.0,12.0,44,0.00,FEW,FEW,0.00,WeatherDisplay:10.34,2013-07-20 18:42:00,
2013-07-20 14:47:00,81.3,57.9,29.77,WSW,253,7.0,9.0,45,0.00,FEW,FEW,0.00,WeatherDisplay:10.34,2013-07-20 18:47:00,
2013-07-20 14:55:00,81.1,57.8,29.77,WNW,296,5.0,7.0,45,0.00,FEW,FEW,0.00,WeatherDisplay:10.34,2013-07-20 18:55:00,
2013-07-20 15:00:00,81.5,58.1,29.77,WSW,256,4.0,5.0,45,0.00,FEW,FEW,0.00,WeatherDisplay:10.34,2013-07-20 19:00:00,
2013-07-20 15:05:00,81.7,57.6,29.77,West,275,4.0,12.0,44,0.00,CLR,CLR,0.00,WeatherDisplay:10.34,2013-07-20 19:05:00,
2013-07-20 15:10:00,81.3,56.7,29.77,NE,35,7.0,12.0,43,0.00,CLR,CLR,0.00,WeatherDisplay:10.34,2013-07-20 19:10:00,
2013-07-20 15:15:00,81.1,56.5,29.77,NNE,19,6.0,13.0,43,0.00,CLR,CLR,0.00,WeatherDisplay:10.34,2013-07-20 19:15:00,
2013-07-20 15:20:00,81.3,56.7,29.77,NE,52,9.0,16.0,43,0.00,CLR,CLR,0.00,WeatherDisplay:10.34,2013-07-20 19:20:00,
2013-07-20 15:25:00,81.9,57.2,29.77,WNW,288,4.0,12.0,43,0.00,CLR,CLR,0.00,WeatherDisplay:10.34,2013-07-20 19:25:00,
2013-07-20 15:30:00,82.2,56.8,29.77,ENE,70,4.0,7.0,42,0.00,CLR,CLR,0.00,WeatherDisplay:10.34,2013-07-20 19:30:00,
2013-07-20 15:35:00,82.2,57.5,29.77,SW,221,4.0,7.0,43,0.00,CLR,CLR,0.00,WeatherDisplay:10.34,2013-07-20 19:35:00,
2013-07-20 15:41:00,82.2,58.1,29.77,NW,321,5.0,8.0,44,0.00,CLR,CLR,0.00,WeatherDisplay:10.34,2013-07-20 19:41:00,
2013-07-20 15:46:00,82.2,57.5,29.77,NNW,341,4.0,7.0,43,0.00,CLR,CLR,0.00,WeatherDisplay:10.34,2013-07-20 19:46:00,
2013-07-20 15:53:00,82.4,57.7,29.77,East,97,5.0,9.0,43,0.00,CLR,CLR,0.00,WeatherDisplay:10.34,2013-07-20 19:53:00,
2013-07-20 15:58:00,82.2,56.8,29.77,WSW,241,4.0,6.0,42,0.00,CLR,CLR,0.00,WeatherDisplay:10.34,2013-07-20 19:58:00,
2013-07-20 16:04:00,82.2,57.5,29.77,WNW,282,7.0,12.0,43,0.00,CLR,CLR,0.00,WeatherDisplay:10.34,2013-07-20 20:04:00,
2013-07-20 16:09:00,82.2,57.5,29.77,WSW,243,7.0,12.0,43,0.00,CLR,CLR,0.00,WeatherDisplay:10.34,2013-07-20 20:09:00,
2013-07-20 16:15:00,81.7,57.0,29.77,North,351,7.0,16.0,43,0.00,CLR,CLR,0.00,WeatherDisplay:10.34,2013-07-20 20:15:00,
2013-07-20 16:20:00,81.7,57.6,29.77,NNE,22,4.0,7.0,44,0.00,CLR,CLR,0.00,WeatherDisplay:10.34,2013-07-20 20:20:00,
2013-07-20 16:25:00,81.5,56.8,29.77,WNW,289,5.0,9.0,43,0.00,CLR,CLR,0.00,WeatherDisplay:10.34,2013-07-20 20:25:00,
2013-07-20 16:30:00,81.3,56.7,29.77,East,88,5.0,9.0,43,0.00,CLR,CLR,0.00,WeatherDisplay:10.34,2013-07-20 20:30:00,
2013-07-20 16:35:00,81.1,56.5,29.77,WSW,245,5.0,13.0,43,0.00,CLR,CLR,0.00,WeatherDisplay:10.34,2013-07-20 20:35:00,
2013-07-20 16:40:00,81.1,56.5,29.77,NNE,20,3.0,12.0,43,0.00,CLR,CLR,0.00,WeatherDisplay:10.34,2013-07-20 20:40:00,
2013-07-20 16:45:00,81.0,56.4,29.77,NNW,344,4.0,8.0,43,0.00,CLR,CLR,0.00,WeatherDisplay:10.34,2013-07-20 20:45:00,
2013-07-20 16:50:00,81.1,57.2,29.80,East,89,3.0,8.0,44,0.00,CLR,CLR,0.00,WeatherDisplay:10.34,2013-07-20 20:50:00,
2013-07-20 16:55:00,81.9,57.8,29.80,East,85,5.0,8.0,44,0.00,CLR,CLR,0.00,WeatherDisplay:10.34,2013-07-20 20:55:00,
2013-07-20 17:00:00,82.4,56.3,29.80,North,11,5.0,8.0,41,0.00,CLR,CLR,0.00,WeatherDisplay:10.34,2013-07-20 21:00:00,
2013-07-20 17:05:00,82.6,56.5,29.80,North,7,6.0,12.0,41,0.00,SCT,SCT,0.00,WeatherDisplay:10.34,2013-07-20 21:05:00,
2013-07-20 17:10:00,82.0,55.3,29.80,North,1,7.0,14.0,40,0.00,SCT,SCT,0.00,WeatherDisplay:10.34,2013-07-20 21:10:00,
2013-07-20 17:16:00,81.1,55.9,29.83,NNE,14,8.0,16.0,42,0.00,SCT,SCT,0.00,WeatherDisplay:10.34,2013-07-20 21:16:00,
2013-07-20 17:21:00,78.4,56.5,29.83,WSW,253,3.0,5.0,47,0.00,SCT,SCT,0.00,WeatherDisplay:10.34,2013-07-20 21:21:00,
2013-07-20 17:26:00,75.6,58.8,29.84,NNE,17,6.0,9.0,56,0.00,SCT,SCT,0.00,WeatherDisplay:10.34,2013-07-20 21:26:00,
2013-07-20 17:31:00,74.1,58.9,29.81,North,3,5.0,12.0,59,0.00,SCT,SCT,0.00,WeatherDisplay:10.34,2013-07-20 21:31:00,
2013-07-20 17:36:00,73.2,59.9,29.81,SSW,198,3.0,5.0,63,0.00,SCT,SCT,0.00,WeatherDisplay:10.34,2013-07-20 21:36:00,
2013-07-20 17:41:00,72.5,60.5,29.81,WSW,242,5.0,6.0,66,0.00,SCT,SCT,0.00,WeatherDisplay:10.34,2013-07-20 21:41:00,
2013-07-20 17:48:00,72.1,61.0,29.81,ENE,75,0.0,3.0,68,0.00,SCT,SCT,0.00,WeatherDisplay:10.34,2013-07-20 21:48:00,
2013-07-20 17:53:00,72.0,61.2,29.81,North,6,3.0,5.0,69,0.00,SCT,SCT,0.00,WeatherDisplay:10.34,2013-07-20 21:53:00,
2013-07-20 17:58:00,72.0,61.2,29.81,South,175,0.0,3.0,69,0.00,SCT,SCT,0.00,WeatherDisplay:10.34,2013-07-20 21:58:00,
2013-07-20 18:03:00,72.1,61.8,29.84,West,280,0.0,3.0,70,0.00,FEW,FEW,0.00,WeatherDisplay:10.34,2013-07-20 22:03:00,
2013-07-20 18:09:00,72.5,62.6,29.84,SSW,196,0.0,3.0,71,0.00,FEW,FEW,0.00,WeatherDisplay:10.34,2013-07-20 22:09:00,
2013-07-20 18:15:00,72.7,62.7,29.84,ENE,66,3.0,7.0,71,0.00,FEW,FEW,0.00,WeatherDisplay:10.34,2013-07-20 22:15:00,
2013-07-20 18:21:00,72.9,62.9,29.84,WSW,246,0.0,6.0,71,0.00,FEW,FEW,0.00,WeatherDisplay:10.34,2013-07-20 22:21:00,
2013-07-20 18:26:00,73.0,63.5,29.84,North,0,3.0,5.0,72,0.00,FEW,FEW,0.00,WeatherDisplay:10.34,2013-07-20 22:26:00,
2013-07-20 18:31:00,73.2,63.6,29.84,SW,235,3.0,0.0,72,0.00,FEW,FEW,0.00,WeatherDisplay:10.34,2013-07-20 22:31:00,
2013-07-20 18:37:00,73.2,63.2,29.84,West,274,3.0,6.0,71,0.00,FEW,FEW,0.00,WeatherDisplay:10.34,2013-07-20 22:37:00,
2013-07-20 18:42:00,73.0,63.1,29.84,WSW,243,0.0,3.0,71,0.00,FEW,FEW,0.00,WeatherDisplay:10.34,2013-07-20 22:42:00,
2013-07-20 18:47:00,73.2,63.6,29.84,WSW,240,0.0,0.0,72,0.00,FEW,FEW,0.00,WeatherDisplay:10.34,2013-07-20 22:47:00,
2013-07-20 18:52:00,73.4,64.2,29.84,NW,308,3.0,8.0,73,0.00,FEW,FEW,0.00,WeatherDisplay:10.34,2013-07-20 22:52:00,
2013-07-20 18:57:00,73.4,64.2,29.84,NNE,22,0.0,3.0,73,0.00,FEW,FEW,0.00,WeatherDisplay:10.34,2013-07-20 22:57:00,
2013-07-20 19:02:00,73.6,64.4,29.84,NNW,331,0.0,0.0,73,0.00,FEW,FEW,0.00,WeatherDisplay:10.34,2013-07-20 23:02:00,
2013-07-20 19:08:00,73.6,64.4,29.84,SW,219,0.0,5.0,73,0.00,FEW,FEW,0.00,WeatherDisplay:10.34,2013-07-20 23:08:00,
2013-07-20 19:13:00,73.6,64.0,29.84,WSW,241,3.0,6.0,72,0.00,FEW,FEW,0.00,WeatherDisplay:10.34,2013-07-20 23:13:00,
2013-07-20 19:18:00,73.4,64.2,29.84,SW,228,0.0,0.0,73,0.00,FEW,FEW,0.00,WeatherDisplay:10.34,2013-07-20 23:18:00,
2013-07-20 19:24:00,73.2,64.0,29.84,SW,228,0.0,0.0,73,0.00,FEW,FEW,0.00,WeatherDisplay:10.34,2013-07-20 23:24:00,
2013-07-20 19:29:00,73.0,64.6,29.84,SE,124,0.0,0.0,75,0.00,FEW,FEW,0.00,WeatherDisplay:10.34,2013-07-20 23:29:00,
2013-07-20 19:34:00,72.9,64.8,29.84,North,351,3.0,7.0,76,0.00,FEW,FEW,0.00,WeatherDisplay:10.34,2013-07-20 23:34:00,
2013-07-20 19:40:00,72.7,65.1,29.84,North,0,0.0,3.0,77,0.00,FEW,FEW,0.00,WeatherDisplay:10.34,2013-07-20 23:40:00,
2013-07-20 19:45:00,72.7,65.1,29.84,NNE,12,3.0,3.0,77,0.00,FEW,FEW,0.00,WeatherDisplay:10.34,2013-07-20 23:45:00,
2013-07-20 19:50:00,72.9,65.2,29.84,North,10,3.0,3.0,77,0.00,FEW,FEW,0.00,WeatherDisplay:10.34,2013-07-20 23:50:00,
2013-07-20 19:55:00,72.9,64.8,29.84,NNE,30,3.0,8.0,76,0.00,FEW,FEW,0.00,WeatherDisplay:10.34,2013-07-20 23:55:00,
2013-07-20 20:00:00,72.9,64.8,29.84,North,9,3.0,6.0,76,0.00,FEW,FEW,0.00,WeatherDisplay:10.34,2013-07-21 00:00:00,
2013-07-20 20:06:00,72.7,64.7,29.87,North,9,0.0,0.0,76,0.00,BKN,BKN,0.00,WeatherDisplay:10.34,2013-07-21 00:06:00,
2013-07-20 20:11:00,72.7,64.7,29.87,ENE,60,0.0,0.0,76,0.00,BKN,BKN,0.00,WeatherDisplay:10.34,2013-07-21 00:11:00,
2013-07-20 20:16:00,72.7,65.1,29.87,ENE,60,0.0,0.0,77,0.00,BKN,BKN,0.00,WeatherDisplay:10.34,2013-07-21 00:16:00,
2013-07-20 20:22:00,72.5,64.9,29.87,ENE,59,0.0,0.0,77,0.00,BKN,BKN,0.00,WeatherDisplay:10.34,2013-07-21 00:22:00,
2013-07-20 20:27:00,72.5,65.2,29.87,NE,38,0.0,5.0,78,0.00,BKN,BKN,0.00,WeatherDisplay:10.34,2013-07-21 00:27:00,
2013-07-20 20:32:00,72.5,65.2,29.87,WNW,286,4.0,5.0,78,0.00,BKN,BKN,0.00,WeatherDisplay:10.34,2013-07-21 00:32:00,
2013-07-20 20:37:00,72.5,64.9,29.87,West,269,0.0,3.0,77,0.00,BKN,BKN,0.00,WeatherDisplay:10.34,2013-07-21 00:37:00,
2013-07-20 20:43:00,72.3,64.7,29.87,North,0,4.0,6.0,77,0.00,BKN,BKN,0.00,WeatherDisplay:10.34,2013-07-21 00:43:00,
2013-07-20 20:48:00,72.3,64.7,29.87,North,0,0.0,0.0,77,0.00,BKN,BKN,0.00,WeatherDisplay:10.34,2013-07-21 00:48:00,
2013-07-20 20:54:00,72.1,64.2,29.87,North,0,0.0,0.0,76,0.00,BKN,BKN,0.00,WeatherDisplay:10.34,2013-07-21 00:54:00,
2013-07-20 20:59:00,71.8,64.2,29.87,North,0,0.0,0.0,77,0.00,BKN,BKN,0.00,WeatherDisplay:10.34,2013-07-21 00:59:00,
2013-07-20 21:05:00,71.6,64.0,29.87,WSW,253,0.0,3.0,77,0.00,FEW,FEW,0.00,WeatherDisplay:10.34,2013-07-21 01:05:00,
2013-07-20 21:10:00,71.4,64.2,29.87,WSW,253,0.0,0.0,78,0.00,FEW,FEW,0.00,WeatherDisplay:10.34,2013-07-21 01:10:00,
2013-07-20 21:16:00,71.2,64.0,29.90,WSW,253,0.0,0.0,78,0.00,FEW,FEW,0.00,WeatherDisplay:10.34,2013-07-21 01:16:00,
2013-07-20 21:21:00,71.1,63.9,29.90,WSW,257,0.0,0.0,78,0.00,FEW,FEW,0.00,WeatherDisplay:10.34,2013-07-21 01:21:00,
2013-07-20 21:27:00,70.9,63.7,29.90,WSW,257,0.0,0.0,78,0.00,FEW,FEW,0.00,WeatherDisplay:10.34,2013-07-21 01:27:00,
2013-07-20 21:32:00,70.7,63.9,29.90,West,278,0.0,3.0,79,0.00,FEW,FEW,0.00,WeatherDisplay:10.34,2013-07-21 01:32:00,
2013-07-20 21:37:00,70.5,63.7,29.90,WNW,297,3.0,3.0,79,0.00,FEW,FEW,0.00,WeatherDisplay:10.34,2013-07-21 01:37:00,
2013-07-20 21:42:00,70.3,63.5,29.90,WNW,287,0.0,2.0,79,0.00,FEW,FEW,0.00,WeatherDisplay:10.34,2013-07-21 01:42:00,
2013-07-20 21:47:00,70.5,64.0,29.90,WSW,257,0.0,3.0,80,0.00,FEW,FEW,0.00,WeatherDisplay:10.34,2013-07-21 01:47:00,
2013-07-20 21:52:00,70.5,63.7,29.90,WSW,256,0.0,0.0,79,0.00,FEW,FEW,0.00,WeatherDisplay:10.34,2013-07-21 01:52:00,
2013-07-20 21:58:00,70.5,63.7,29.90,NNW,344,0.0,3.0,79,0.00,FEW,FEW,0.00,WeatherDisplay:10.34,2013-07-21 01:58:00,
2013-07-20 22:03:00,70.5,63.7,29.90,West,271,0.0,0.0,79,0.00,CLR,CLR,0.00,WeatherDisplay:10.34,2013-07-21 02:03:00,
2013-07-20 22:09:00,70.3,63.2,29.90,South,187,0.0,2.0,78,0.00,CLR,CLR,0.00,WeatherDisplay:10.34,2013-07-21 02:09:00,
2013-07-20 22:14:00,70.3,63.2,29.90,WNW,286,0.0,3.0,78,0.00,CLR,CLR,0.00,WeatherDisplay:10.34,2013-07-21 02:14:00,
2013-07-20 22:19:00,70.2,63.0,29.90,NW,311,0.0,0.0,78,0.00,CLR,CLR,0.00,WeatherDisplay:10.34,2013-07-21 02:19:00,
2013-07-20 22:24:00,70.2,62.6,29.90,NNW,341,3.0,3.0,77,0.00,CLR,CLR,0.00,WeatherDisplay:10.34,2013-07-21 02:24:00,
2013-07-20 22:30:00,70.0,61.7,29.90,NNW,342,0.0,0.0,75,0.00,CLR,CLR,0.00,WeatherDisplay:10.34,2013-07-21 02:30:00,
2013-07-20 22:35:00,69.8,61.5,29.90,NNW,341,0.0,0.0,75,0.00,CLR,CLR,0.00,WeatherDisplay:10.34,2013-07-21 02:35:00,
2013-07-20 22:40:00,69.8,61.5,29.90,NNW,341,0.0,0.0,75,0.00,CLR,CLR,0.00,WeatherDisplay:10.34,2013-07-21 02:40:00,
2013-07-20 22:46:00,69.3,60.6,29.93,NNW,341,0.0,0.0,74,0.00,CLR,CLR,0.00,WeatherDisplay:10.34,2013-07-21 02:46:00,
2013-07-20 22:51:00,68.9,60.6,29.93,NNW,341,0.0,0.0,75,0.00,CLR,CLR,0.00,WeatherDisplay:10.34,2013-07-21 02:51:00,
2013-07-20 22:56:00,68.4,60.5,29.93,NNW,341,0.0,0.0,76,0.00,CLR,CLR,0.00,WeatherDisplay:10.34,2013-07-21 02:56:00,
2013-07-20 23:01:00,68.0,60.5,29.93,NNW,341,0.0,0.0,77,0.00,CLR,CLR,0.00,WeatherDisplay:10.34,2013-07-21 03:01:00,
2013-07-20 23:07:00,67.6,60.2,29.93,NNW,341,0.0,0.0,77,0.00,CLR,CLR,0.00,WeatherDisplay:10.34,2013-07-21 03:07:00,
2013-07-20 23:12:00,67.3,59.8,29.93,NNW,341,0.0,0.0,77,0.00,CLR,CLR,0.00,WeatherDisplay:10.34,2013-07-21 03:12:00,
2013-07-20 23:17:00,66.7,59.3,29.93,NNW,341,0.0,0.0,77,0.00,CLR,CLR,0.00,WeatherDisplay:10.34,2013-07-21 03:17:00,
2013-07-20 23:23:00,66.2,58.0,29.93,NNW,341,0.0,0.0,75,0.00,CLR,CLR,0.00,WeatherDisplay:10.34,2013-07-21 03:23:00,
2013-07-20 23:29:00,65.8,58.1,29.93,NNW,341,0.0,0.0,76,0.00,CLR,CLR,0.00,WeatherDisplay:10.34,2013-07-21 03:29:00,
2013-07-20 23:34:00,65.8,58.4,29.93,NNW,341,0.0,0.0,77,0.00,CLR,CLR,0.00,WeatherDisplay:10.34,2013-07-21 03:34:00,
2013-07-20 23:39:00,65.8,58.8,29.93,NNW,341,0.0,0.0,78,0.00,CLR,CLR,0.00,WeatherDisplay:10.34,2013-07-21 03:39:00,
2013-07-20 23:44:00,65.7,58.6,29.93,NNW,341,0.0,0.0,78,0.00,CLR,CLR,0.00,WeatherDisplay:10.34,2013-07-21 03:44:00,
2013-07-20 23:51:00,65.3,58.3,29.93,NNW,341,0.0,0.0,78,0.00,CLR,CLR,0.00,WeatherDisplay:10.34,2013-07-21 03:51:00,
2013-07-20 23:56:00,64.9,57.6,29.93,NNW,341,0.0,0.0,77,0.00,CLR,CLR,0.00,WeatherDisplay:10.34,2013-07-21 03:56:00,